createdAt,value
2018-12-18T00:00:34.212Z,6.50
2018-12-18T00:03:02.416Z,9.43
2018-12-18T00:05:34.876Z,5.20
2018-12-18T00:08:04.751Z,11.80
2018-12-18T00:10:38.408Z,6.40
2018-12-18T00:13:06.632Z,8.37
2018-12-18T00:15:34.831Z,5.73
2018-12-18T00:18:03.138Z,4.60
2018-12-18T00:20:31.340Z,5.73
2018-12-18T00:22:59.562Z,8.93
2018-12-18T00:25:27.772Z,7.37
2018-12-18T00:27:55.988Z,6.53
2018-12-18T00:30:24.200Z,7.10
2018-12-18T00:32:52.434Z,5.70
2018-12-18T00:35:20.649Z,3.80
2018-12-18T00:37:48.858Z,3.67
2018-12-18T00:40:17.152Z,9.43
2018-12-18T00:42:45.356Z,5.67
2018-12-18T00:45:13.596Z,6.60
2018-12-18T00:47:41.799Z,5.37
2018-12-18T00:50:10.020Z,5.37
2018-12-18T00:52:38.309Z,4.10
2018-12-18T00:55:07.904Z,4.33
2018-12-18T00:57:36.113Z,5.87
2018-12-18T01:00:06.025Z,6.90
2018-12-18T01:02:34.244Z,5.07
2018-12-18T01:05:02.552Z,4.80
2018-12-18T01:07:30.753Z,3.13
2018-12-18T01:09:58.987Z,5.03
2018-12-18T01:12:27.200Z,4.80
2018-12-18T01:14:55.531Z,8.37
2018-12-18T01:17:23.736Z,3.50
2018-12-18T01:19:51.957Z,3.97
2018-12-18T01:22:20.156Z,2.80
2018-12-18T01:24:48.370Z,7.33
2018-12-18T01:27:16.573Z,4.13
2018-12-18T01:29:44.816Z,3.10
2018-12-18T01:32:13.015Z,4.27
2018-12-18T01:34:41.244Z,3.30
2018-12-18T01:37:09.473Z,5.77
2018-12-18T01:39:37.692Z,3.70
2018-12-18T01:42:05.897Z,2.90
2018-12-18T01:44:34.110Z,2.07
2018-12-18T01:47:02.348Z,3.97
2018-12-18T01:49:30.551Z,3.87
2018-12-18T01:51:58.752Z,4.23
2018-12-18T01:54:26.963Z,3.73
2018-12-18T01:56:55.176Z,2.70
2018-12-18T01:59:23.483Z,1.83
2018-12-18T02:01:51.677Z,3.93
2018-12-18T02:04:19.948Z,6.70
2018-12-18T02:06:48.153Z,4.70
2018-12-18T02:09:16.365Z,2.70
2018-12-18T02:11:44.572Z,6.20
2018-12-18T02:14:12.880Z,18.07
2018-12-18T02:16:41.168Z,2.20
2018-12-18T02:19:09.430Z,8.70
2018-12-18T02:21:37.691Z,7.13
2018-12-18T02:24:05.919Z,3.17
2018-12-18T02:26:34.123Z,3.20
2018-12-18T02:29:02.345Z,5.40
2018-12-18T02:31:30.547Z,2.80
2018-12-18T02:33:58.774Z,2.53
2018-12-18T02:36:26.995Z,3.23
2018-12-18T02:38:55.209Z,1.80
2018-12-18T02:41:23.419Z,3.73
2018-12-18T02:43:51.633Z,4.07
2018-12-18T02:46:19.831Z,3.13
2018-12-18T02:48:48.048Z,5.27
2018-12-18T02:51:16.528Z,2.60
2018-12-18T02:53:44.749Z,4.37
2018-12-18T02:56:12.971Z,3.73
2018-12-18T02:58:41.168Z,1.83
2018-12-18T03:01:09.392Z,3.00
2018-12-18T03:03:37.591Z,3.30
2018-12-18T03:06:05.808Z,3.50
2018-12-18T03:08:34.012Z,1.90
2018-12-18T03:11:02.321Z,6.07
2018-12-18T03:13:30.543Z,4.57
2018-12-18T03:15:58.840Z,5.17
2018-12-18T03:18:27.040Z,2.60
2018-12-18T03:20:55.243Z,3.60
2018-12-18T03:23:23.447Z,2.33
2018-12-18T03:25:51.660Z,4.10
2018-12-18T03:28:19.859Z,3.70
2018-12-18T03:30:48.078Z,4.00
2018-12-18T03:33:16.285Z,4.03
2018-12-18T03:35:44.509Z,2.17
2018-12-18T03:38:12.720Z,1.93
2018-12-18T03:40:40.936Z,1.60
2018-12-18T03:43:09.241Z,2.23
2018-12-18T03:45:37.451Z,1.77
2018-12-18T03:48:05.749Z,4.67
2018-12-18T03:50:34.062Z,2.60
2018-12-18T03:53:02.269Z,2.90
2018-12-18T03:55:30.483Z,2.50
2018-12-18T03:57:58.691Z,2.00
2018-12-18T04:00:26.904Z,2.00
2018-12-18T04:02:55.109Z,3.30
2018-12-18T04:05:23.391Z,1.67
2018-12-18T04:07:51.601Z,4.80
2018-12-18T04:10:19.817Z,2.07
2018-12-18T04:12:48.029Z,2.37
2018-12-18T04:15:16.249Z,9.23
2018-12-18T04:17:44.557Z,4.17
2018-12-18T04:20:12.769Z,5.67
2018-12-18T04:22:40.980Z,3.30
2018-12-18T04:25:09.196Z,2.70
2018-12-18T04:27:37.408Z,4.37
2018-12-18T04:30:06.807Z,3.40
2018-12-18T04:32:35.112Z,3.67
2018-12-18T04:35:03.740Z,4.20
2018-12-18T04:37:32.038Z,2.80
2018-12-18T04:40:00.249Z,2.63
2018-12-18T04:42:28.541Z,2.27
2018-12-18T04:44:56.749Z,2.57
2018-12-18T04:47:24.951Z,2.37
2018-12-18T04:49:53.163Z,2.97
2018-12-18T04:52:21.367Z,2.70
2018-12-18T04:54:49.575Z,3.97
2018-12-18T04:57:17.785Z,3.00
2018-12-18T04:59:46.001Z,2.47
2018-12-18T05:02:14.210Z,2.30
2018-12-18T05:04:42.506Z,4.43
2018-12-18T05:07:10.735Z,2.67
2018-12-18T05:09:45.544Z,2.33
2018-12-18T05:12:13.768Z,4.10
2018-12-18T05:14:41.980Z,2.40
2018-12-18T05:17:10.190Z,2.60
2018-12-18T05:19:38.412Z,4.30
2018-12-18T05:22:06.619Z,3.00
2018-12-18T05:24:34.842Z,2.30
2018-12-18T05:27:03.034Z,2.90
2018-12-18T05:29:31.243Z,3.80
2018-12-18T05:31:59.550Z,2.67
2018-12-18T05:34:27.767Z,3.30
2018-12-18T05:36:55.986Z,3.80
2018-12-18T05:39:24.200Z,4.70
2018-12-18T05:41:52.436Z,3.43
2018-12-18T05:44:20.652Z,5.63
2018-12-18T05:46:48.880Z,2.50
2018-12-18T05:49:17.087Z,3.03
2018-12-18T05:51:45.306Z,4.20
2018-12-18T05:54:13.509Z,4.30
2018-12-18T05:56:41.796Z,2.90
2018-12-18T05:59:10.031Z,3.47
2018-12-18T06:01:38.257Z,3.73
2018-12-18T06:04:06.466Z,6.50
2018-12-18T06:06:34.835Z,6.00
2018-12-18T06:09:05.151Z,4.70
2018-12-18T06:11:33.362Z,6.80
2018-12-18T06:14:01.571Z,4.73
2018-12-18T06:16:29.805Z,6.87
2018-12-18T06:18:58.099Z,7.20
2018-12-18T06:21:26.329Z,8.10
2018-12-18T06:23:54.533Z,6.13
2018-12-18T06:26:22.756Z,5.77
2018-12-18T06:28:50.960Z,5.67
2018-12-18T06:31:19.168Z,6.13
2018-12-18T06:33:47.385Z,9.57
2018-12-18T06:36:15.837Z,6.93
2018-12-18T06:38:44.044Z,8.60
2018-12-18T06:41:12.253Z,7.13
2018-12-18T06:43:40.471Z,5.87
2018-12-18T06:46:08.692Z,6.30
2018-12-18T06:48:36.909Z,6.50
2018-12-18T06:51:05.356Z,10.40
2018-12-18T06:53:33.548Z,6.57
2018-12-18T06:56:01.790Z,8.07
2018-12-18T06:58:29.988Z,9.83
2018-12-18T07:00:58.224Z,8.40
2018-12-18T07:03:26.426Z,6.60
2018-12-18T07:05:54.646Z,7.67
2018-12-18T07:08:22.959Z,7.20
2018-12-18T07:10:51.191Z,9.10
2018-12-18T07:13:19.518Z,6.47
2018-12-18T07:15:47.816Z,8.70
2018-12-18T07:18:16.015Z,13.80
2018-12-18T07:20:44.248Z,27.17
2018-12-18T07:23:12.459Z,15.87
2018-12-18T07:25:40.789Z,21.50
2018-12-18T07:28:09.029Z,25.50
2018-12-18T07:30:37.355Z,22.00
2018-12-18T07:33:05.590Z,19.23
2018-12-18T07:35:33.823Z,16.83
2018-12-18T07:38:02.047Z,20.57
2018-12-18T07:40:30.297Z,9.57
2018-12-18T07:42:58.696Z,14.73
2018-12-18T07:45:26.992Z,11.03
2018-12-18T07:47:55.215Z,12.43
2018-12-18T07:50:23.507Z,19.03
2018-12-18T07:52:51.720Z,11.20
2018-12-18T07:55:19.954Z,14.00
2018-12-18T07:57:48.176Z,11.60
2018-12-18T08:00:16.389Z,12.87
2018-12-18T08:02:44.623Z,11.43
2018-12-18T08:05:12.855Z,11.07
2018-12-18T08:07:41.093Z,10.20
2018-12-18T08:10:09.388Z,14.20
2018-12-18T08:12:37.611Z,13.90
2018-12-18T08:15:06.067Z,19.27
2018-12-18T08:17:34.379Z,23.27
2018-12-18T08:20:02.784Z,20.07
2018-12-18T08:22:31.114Z,18.23
2018-12-18T08:24:59.330Z,25.40
2018-12-18T08:27:27.544Z,23.93
2018-12-18T08:29:55.764Z,21.20
2018-12-18T08:32:23.987Z,19.17
2018-12-18T08:34:52.226Z,19.93
2018-12-18T08:37:20.442Z,19.30
2018-12-18T08:39:48.655Z,18.23
2018-12-18T08:42:16.872Z,15.20
2018-12-18T08:44:45.107Z,17.97
2018-12-18T08:47:13.308Z,15.67
2018-12-18T08:49:41.512Z,15.47
2018-12-18T08:52:09.756Z,13.63
2018-12-18T08:54:37.958Z,16.63
2018-12-18T08:57:06.268Z,16.00
2018-12-18T08:59:34.496Z,13.27
2018-12-18T09:02:02.717Z,17.67
2018-12-18T09:04:30.947Z,14.97
2018-12-18T09:06:59.175Z,12.50
2018-12-18T09:09:27.489Z,17.90
2018-12-18T09:11:55.704Z,20.53
2018-12-18T09:14:23.948Z,16.97
2018-12-18T09:16:57.591Z,17.87
2018-12-18T09:19:25.801Z,20.13
2018-12-18T09:21:54.036Z,23.03
2018-12-18T09:24:22.340Z,18.07
2018-12-18T09:26:50.551Z,22.20
2018-12-18T09:29:18.771Z,19.33
2018-12-18T09:31:47.005Z,18.80
2018-12-18T09:34:15.229Z,15.17
2018-12-18T09:36:43.452Z,13.17
2018-12-18T09:39:17.197Z,14.63
2018-12-18T09:41:47.887Z,14.70
2018-12-18T09:44:17.036Z,14.13
2018-12-18T09:46:45.255Z,14.20
2018-12-18T09:49:13.559Z,14.30
2018-12-18T09:51:41.960Z,19.40
2018-12-18T09:54:10.181Z,22.83
2018-12-18T09:56:43.936Z,16.27
2018-12-18T09:59:12.160Z,11.10
2018-12-18T10:01:40.372Z,12.20
2018-12-18T10:04:08.584Z,12.77
2018-12-18T10:06:36.821Z,11.50
2018-12-18T10:09:09.686Z,12.33
2018-12-18T10:11:37.912Z,10.97
2018-12-18T10:14:06.302Z,10.50
2018-12-18T10:16:34.516Z,11.10
2018-12-18T10:19:02.737Z,8.17
2018-12-18T10:21:30.948Z,11.03
2018-12-18T10:23:59.175Z,10.67
2018-12-18T10:26:27.484Z,23.20
2018-12-18T10:28:55.703Z,22.50
2018-12-18T10:31:23.949Z,16.43
2018-12-18T10:33:52.193Z,15.53
2018-12-18T10:36:20.399Z,15.13
2018-12-18T10:38:48.619Z,15.43
2018-12-18T10:41:16.825Z,17.80
2018-12-18T10:43:45.051Z,16.73
2018-12-18T10:46:13.264Z,15.77
2018-12-18T10:48:41.500Z,16.30
2018-12-18T10:51:09.709Z,13.70
2018-12-18T10:53:37.930Z,15.30
2018-12-18T10:56:06.144Z,15.17
2018-12-18T10:58:34.373Z,14.00
2018-12-18T11:01:08.348Z,12.77
2018-12-18T11:03:36.624Z,12.80
2018-12-18T11:06:09.890Z,10.50
2018-12-18T11:08:35.044Z,10.87
2018-12-18T11:11:04.120Z,11.03
2018-12-18T11:16:14.944Z,10.70
2018-12-18T11:18:43.393Z,10.73
2018-12-18T11:21:11.642Z,11.40
2018-12-18T11:23:39.988Z,13.73
2018-12-18T11:26:08.268Z,13.67
2018-12-18T11:28:36.540Z,13.57
2018-12-18T11:31:04.813Z,14.43
2018-12-18T11:33:33.095Z,14.07
2018-12-18T11:36:01.371Z,12.20
2018-12-18T11:38:29.642Z,9.43
2018-12-18T11:40:57.949Z,6.87
2018-12-18T11:43:26.278Z,6.20
2018-12-18T11:45:54.536Z,7.43
2018-12-18T11:48:22.880Z,4.87
2018-12-18T11:53:37.189Z,7.00
2018-12-18T11:56:05.628Z,4.97
2018-12-18T11:58:33.910Z,8.47
2018-12-18T12:01:02.220Z,8.23
2018-12-18T12:03:31.567Z,4.57
2018-12-18T12:05:59.783Z,4.57
2018-12-18T12:08:28.012Z,5.37
2018-12-18T12:10:56.229Z,6.10
2018-12-18T12:13:24.453Z,6.10
2018-12-18T12:15:52.654Z,8.37
2018-12-18T12:18:20.873Z,8.97
2018-12-18T12:20:49.076Z,6.40
2018-12-18T12:23:17.291Z,7.30
2018-12-18T12:25:45.508Z,10.53
2018-12-18T12:28:13.739Z,7.40
2018-12-18T12:30:41.944Z,5.97
2018-12-18T12:33:10.263Z,8.50
2018-12-18T12:35:38.559Z,12.20
2018-12-18T12:38:06.808Z,9.23
2018-12-18T12:40:35.160Z,7.97
2018-12-18T12:43:03.385Z,9.97
2018-12-18T12:45:31.690Z,11.73
2018-12-18T12:48:00.338Z,9.10
2018-12-18T12:50:28.650Z,9.07
2018-12-18T12:52:56.877Z,8.53
2018-12-18T12:55:25.098Z,7.27
2018-12-18T12:57:53.324Z,8.30
2018-12-18T13:00:21.551Z,7.53
2018-12-18T13:02:49.772Z,14.07
2018-12-18T13:05:17.989Z,10.80
2018-12-18T13:07:46.220Z,8.63
2018-12-18T13:10:14.433Z,8.57
2018-12-18T13:12:42.668Z,7.93
2018-12-18T13:15:10.894Z,8.63
2018-12-18T13:17:39.108Z,10.40
2018-12-18T13:20:07.628Z,9.27
2018-12-18T13:22:35.862Z,8.07
2018-12-18T13:25:05.062Z,8.90
2018-12-18T13:27:33.334Z,9.00
2018-12-18T13:30:01.564Z,11.27
2018-12-18T13:32:29.781Z,9.73
2018-12-18T13:34:58.216Z,6.27
2018-12-18T13:37:26.416Z,6.53
2018-12-18T13:39:54.635Z,7.13
2018-12-18T13:42:22.848Z,10.33
2018-12-18T13:44:51.186Z,16.97
2018-12-18T13:47:19.372Z,7.70
2018-12-18T13:49:47.591Z,9.50
2018-12-18T13:52:15.814Z,7.70
2018-12-18T13:54:44.052Z,9.07
2018-12-18T13:57:12.285Z,10.63
2018-12-18T13:59:40.533Z,12.03
2018-12-18T14:02:08.757Z,9.83
2018-12-18T14:04:36.993Z,8.67
2018-12-18T14:07:05.291Z,8.77
2018-12-18T14:09:33.511Z,6.50
2018-12-18T14:12:01.728Z,9.00
2018-12-18T14:14:29.952Z,8.57
2018-12-18T14:16:58.183Z,7.47
2018-12-18T14:19:26.412Z,6.43
2018-12-18T14:21:54.728Z,8.73
2018-12-18T14:24:23.045Z,8.40
2018-12-18T14:26:51.263Z,8.30
2018-12-18T14:29:19.511Z,9.30
2018-12-18T14:31:47.720Z,6.00
2018-12-18T14:34:16.026Z,8.07
2018-12-18T14:36:44.258Z,8.47
2018-12-18T14:39:12.490Z,8.17
2018-12-18T14:41:40.707Z,10.60
2018-12-18T14:44:08.958Z,8.60
2018-12-18T14:46:37.260Z,7.57
2018-12-18T14:49:05.653Z,9.10
2018-12-18T14:51:33.877Z,13.47
2018-12-18T14:54:02.513Z,8.90
2018-12-18T14:56:30.734Z,11.87
2018-12-18T14:58:58.981Z,9.67
2018-12-18T15:01:27.248Z,10.93
2018-12-18T15:03:55.463Z,8.97
2018-12-18T15:06:23.702Z,9.47
2018-12-18T15:08:51.917Z,13.83
2018-12-18T15:11:20.156Z,17.83
2018-12-18T15:13:48.371Z,20.10
2018-12-18T15:16:16.583Z,20.80
2018-12-18T15:18:44.895Z,23.80
2018-12-18T15:21:13.299Z,42.70
2018-12-18T15:23:41.508Z,38.93
2018-12-18T15:26:09.820Z,21.77
2018-12-18T15:28:38.035Z,25.07
2018-12-18T15:31:06.368Z,34.40
2018-12-18T15:33:34.673Z,53.93
2018-12-18T15:36:03.008Z,46.23
2018-12-18T15:38:31.279Z,38.70
2018-12-18T15:40:59.513Z,25.97
2018-12-18T15:43:27.768Z,23.37
2018-12-18T15:45:56.031Z,18.53
2018-12-18T15:48:24.250Z,19.73
2018-12-18T15:50:52.486Z,16.37
2018-12-18T15:53:20.710Z,12.80
2018-12-18T15:55:48.923Z,16.07
2018-12-18T15:58:17.178Z,15.60
2018-12-18T16:00:45.504Z,12.73
2018-12-18T16:03:13.724Z,14.73
2018-12-18T16:05:41.980Z,11.70
2018-12-18T16:08:10.192Z,15.40
2018-12-18T16:10:44.812Z,12.80
2018-12-18T16:13:13.091Z,11.83
2018-12-18T16:15:41.321Z,14.20
2018-12-18T16:18:09.536Z,13.50
2018-12-18T16:20:37.766Z,14.47
2018-12-18T16:23:06.011Z,18.03
2018-12-18T16:25:34.237Z,14.03
2018-12-18T16:28:02.460Z,13.50
2018-12-18T16:30:30.684Z,11.57
2018-12-18T16:32:58.908Z,15.27
2018-12-18T16:35:28.274Z,16.17
2018-12-18T16:37:56.683Z,20.13
2018-12-18T16:40:24.907Z,15.87
2018-12-18T16:42:53.151Z,19.40
2018-12-18T16:45:21.388Z,16.60
2018-12-18T16:47:49.605Z,17.20
2018-12-18T16:50:17.832Z,14.87
2018-12-18T16:52:46.084Z,14.43
2018-12-18T16:55:14.312Z,14.40
2018-12-18T16:57:42.528Z,14.03
2018-12-18T17:00:11.076Z,13.10
2018-12-18T17:02:39.398Z,10.73
2018-12-18T17:05:08.165Z,12.20
2018-12-18T17:07:36.379Z,11.80
2018-12-18T17:10:05.697Z,12.90
2018-12-18T17:12:33.995Z,13.03
2018-12-18T17:15:02.311Z,12.50
2018-12-18T17:17:30.535Z,11.93
2018-12-18T17:19:58.760Z,15.90
2018-12-18T17:22:27.027Z,15.90
2018-12-18T17:24:55.244Z,17.20
2018-12-18T17:27:23.468Z,15.60
2018-12-18T17:29:51.696Z,17.47
2018-12-18T17:32:19.915Z,16.70
2018-12-18T17:34:48.149Z,20.93
2018-12-18T17:37:16.359Z,20.77
2018-12-18T17:39:44.597Z,19.23
2018-12-18T17:42:12.824Z,19.87
2018-12-18T17:44:41.266Z,21.33
2018-12-18T17:47:09.484Z,21.30
2018-12-18T17:49:37.708Z,19.97
2018-12-18T17:52:05.973Z,24.13
2018-12-18T17:54:34.242Z,20.77
2018-12-18T17:57:02.496Z,17.73
2018-12-18T17:59:40.625Z,15.93
2018-12-18T18:02:08.996Z,18.43
2018-12-18T18:04:37.226Z,19.47
2018-12-18T18:07:05.645Z,17.30
2018-12-18T18:09:33.985Z,18.60
2018-12-18T18:12:02.225Z,18.13
2018-12-18T18:14:30.477Z,16.13
2018-12-18T18:16:58.907Z,13.50
2018-12-18T18:19:27.132Z,17.40
2018-12-18T18:21:55.434Z,16.23
2018-12-18T18:24:23.819Z,15.80
2018-12-18T18:26:52.045Z,12.67
2018-12-18T18:29:20.266Z,14.20
2018-12-18T18:31:48.626Z,20.00
2018-12-18T18:34:16.994Z,16.77
2018-12-18T18:36:45.235Z,14.80
2018-12-18T18:39:13.473Z,15.50
2018-12-18T18:41:41.706Z,19.80
2018-12-18T18:44:09.992Z,22.87
2018-12-18T18:46:38.248Z,17.90
2018-12-18T18:49:06.596Z,13.67
2018-12-18T18:51:34.839Z,14.50
2018-12-18T18:54:03.284Z,17.10
2018-12-18T18:56:31.660Z,14.20
2018-12-18T18:59:00.845Z,12.50
2018-12-18T19:01:29.102Z,14.37
2018-12-18T19:03:59.780Z,16.50
2018-12-18T19:06:28.215Z,13.37
2018-12-18T19:08:56.451Z,15.33
2018-12-18T19:11:25.264Z,17.47
2018-12-18T19:13:53.877Z,13.53
2018-12-18T19:16:22.221Z,13.03
2018-12-18T19:18:51.973Z,15.73
2018-12-18T19:21:24.735Z,16.97
2018-12-18T19:23:52.977Z,13.00
2018-12-18T19:26:21.212Z,14.40
2018-12-18T19:28:50.307Z,14.00
2018-12-18T19:31:18.930Z,12.70
2018-12-18T19:33:47.156Z,11.03
2018-12-18T19:36:15.402Z,13.53
2018-12-18T19:38:43.667Z,20.33
2018-12-18T19:41:11.904Z,20.50
2018-12-18T19:43:40.185Z,18.53
2018-12-18T19:46:08.439Z,18.80
2018-12-18T19:48:37.471Z,17.13
2018-12-18T19:51:05.728Z,16.17
2018-12-18T19:53:33.970Z,17.10
2018-12-18T19:56:02.231Z,15.10
2018-12-18T19:58:32.240Z,14.03
2018-12-18T20:01:00.469Z,13.20
2018-12-18T20:03:29.380Z,16.20
2018-12-18T20:05:57.609Z,15.40
2018-12-18T20:08:27.775Z,18.70
2018-12-18T20:11:05.697Z,14.50
2018-12-18T20:13:35.257Z,15.13
2018-12-18T20:16:03.667Z,16.27
2018-12-18T20:18:38.746Z,15.30
2018-12-18T20:21:06.984Z,18.17
2018-12-18T20:23:35.203Z,20.50
2018-12-18T20:26:03.540Z,17.63
2018-12-18T20:28:34.740Z,19.30
2018-12-18T20:31:07.118Z,17.10
2018-12-18T20:33:35.474Z,19.40
2018-12-18T20:36:03.786Z,17.20
2018-12-18T20:38:32.016Z,14.37
2018-12-18T20:41:00.710Z,15.43
2018-12-18T20:43:28.928Z,14.63
2018-12-18T20:45:57.516Z,16.10
2018-12-18T20:48:25.737Z,17.97
2018-12-18T20:50:56.867Z,17.93
2018-12-18T20:53:25.218Z,24.07
2018-12-18T20:55:53.433Z,22.00
2018-12-18T20:58:23.588Z,21.23
2018-12-18T21:00:51.804Z,19.47
2018-12-18T21:03:20.028Z,22.50
2018-12-18T21:05:48.331Z,21.60
2018-12-18T21:08:23.209Z,23.13
2018-12-18T21:10:46.971Z,22.17
2018-12-18T21:13:20.769Z,23.27
2018-12-18T21:15:49.065Z,20.03
2018-12-18T21:18:17.478Z,23.67
2018-12-18T21:20:45.776Z,23.23
2018-12-18T21:23:14.096Z,20.47
2018-12-18T21:25:42.408Z,16.87
2018-12-18T21:28:10.721Z,18.93
2018-12-18T21:30:39.028Z,17.13
2018-12-18T21:33:07.344Z,22.20
2018-12-18T21:35:35.785Z,17.13
2018-12-18T21:38:04.207Z,21.70
2018-12-18T21:40:32.507Z,18.37
2018-12-18T21:43:00.822Z,15.80
2018-12-18T21:45:30.211Z,15.77
2018-12-18T21:47:58.538Z,16.00
2018-12-18T21:50:26.834Z,20.13
2018-12-18T21:52:55.139Z,15.43
2018-12-18T21:55:23.432Z,12.40
2018-12-18T21:57:51.744Z,19.13
2018-12-18T22:00:20.040Z,15.93
2018-12-18T22:02:48.413Z,14.93
2018-12-18T22:05:16.708Z,14.53
2018-12-18T22:07:45.016Z,15.13
2018-12-18T22:10:13.327Z,14.97
2018-12-18T22:12:41.634Z,15.87
2018-12-18T22:15:09.949Z,16.50
2018-12-18T22:17:38.257Z,17.20
2018-12-18T22:20:06.756Z,17.40
2018-12-18T22:22:35.076Z,15.97
2018-12-18T22:25:03.404Z,17.93
2018-12-18T22:27:31.633Z,17.20
2018-12-18T22:29:59.869Z,13.63
2018-12-18T22:32:28.088Z,13.00
2018-12-18T22:34:56.327Z,12.57
2018-12-18T22:37:24.562Z,16.00
2018-12-18T22:39:52.775Z,12.63
2018-12-18T22:42:21.014Z,12.93
2018-12-18T22:44:49.233Z,15.83
2018-12-18T22:47:17.540Z,12.20
2018-12-18T22:49:45.751Z,13.27
2018-12-18T22:52:13.971Z,15.57
2018-12-18T22:54:42.197Z,13.20
2018-12-18T22:57:10.499Z,13.20
2018-12-18T22:59:38.716Z,14.53
2018-12-18T23:02:12.424Z,15.43
2018-12-18T23:04:41.236Z,15.13
2018-12-18T23:07:09.571Z,13.23
2018-12-18T23:09:37.797Z,16.13
2018-12-18T23:12:06.011Z,13.10
2018-12-18T23:14:34.231Z,17.23
2018-12-18T23:17:02.439Z,12.93
2018-12-18T23:19:30.668Z,11.60
2018-12-18T23:21:58.881Z,13.87
2018-12-18T23:24:27.108Z,14.23
2018-12-18T23:26:55.321Z,12.30
2018-12-18T23:29:23.540Z,14.67
2018-12-18T23:31:51.756Z,11.23
2018-12-18T23:34:21.365Z,13.67
2018-12-18T23:36:49.711Z,12.13
2018-12-18T23:39:17.970Z,12.33
2018-12-18T23:41:46.566Z,10.93
2018-12-18T23:44:14.863Z,12.97
2018-12-18T23:46:43.177Z,14.03
2018-12-18T23:49:11.409Z,14.23
2018-12-18T23:51:39.616Z,13.20
2018-12-18T23:54:07.847Z,11.30
2018-12-18T23:56:36.073Z,16.50
2018-12-18T23:59:04.298Z,17.20
